createdAt,value
2022-09-24T00:03:25.140Z,7.53
2022-09-24T00:08:26.843Z,7.60
2022-09-24T00:13:28.666Z,7.85
2022-09-24T00:18:30.725Z,7.95
2022-09-24T00:23:32.376Z,7.93
2022-09-24T00:28:34.412Z,8.40
2022-09-24T00:33:36.099Z,8.20
2022-09-24T00:38:37.734Z,8.10
2022-09-24T00:43:39.612Z,8.50
2022-09-24T00:48:42.870Z,8.00
2022-09-24T00:53:46.504Z,8.63
2022-09-24T00:58:56.155Z,7.93
2022-09-24T01:03:59.266Z,7.90
2022-09-24T01:09:01.101Z,7.63
2022-09-24T01:14:24.882Z,7.30
2022-09-24T01:19:46.344Z,7.43
2022-09-24T01:24:48.814Z,7.10
2022-09-24T01:30:11.164Z,6.80
2022-09-24T01:35:31.152Z,6.13
2022-09-24T01:40:33.266Z,6.28
2022-09-24T01:45:38.578Z,5.90
2022-09-24T01:50:59.288Z,6.15
2022-09-24T01:56:08.365Z,5.82
2022-09-24T02:01:15.256Z,6.10
2022-09-24T02:06:22.462Z,5.45
2022-09-24T02:11:25.321Z,5.20
2022-09-24T02:16:36.075Z,6.22
2022-09-24T02:21:39.948Z,6.00
2022-09-24T02:26:41.825Z,5.97
2022-09-24T02:31:48.084Z,5.80
2022-09-24T02:36:54.308Z,5.50
2022-09-24T02:41:56.936Z,5.40
2022-09-24T02:46:59.105Z,5.82
2022-09-24T02:52:01.124Z,5.57
2022-09-24T02:57:02.790Z,5.78
2022-09-24T03:02:04.531Z,5.90
2022-09-24T03:07:06.293Z,6.28
2022-09-24T03:12:08.190Z,6.00
2022-09-24T03:17:09.815Z,5.55
2022-09-24T03:22:11.439Z,5.75
2022-09-24T03:27:13.184Z,5.75
2022-09-24T03:32:14.804Z,6.18
2022-09-24T03:37:16.446Z,6.15
2022-09-24T03:42:18.072Z,5.75
2022-09-24T03:47:19.702Z,5.85
2022-09-24T03:52:21.423Z,5.32
2022-09-24T03:57:23.076Z,5.97
2022-09-24T04:02:24.968Z,5.68
2022-09-24T04:07:26.628Z,5.97
2022-09-24T04:12:29.414Z,7.05
2022-09-24T04:17:33.871Z,5.93
2022-09-24T04:22:35.539Z,6.15
2022-09-24T04:27:37.185Z,6.03
2022-09-24T04:32:39.858Z,5.78
2022-09-24T04:37:42.743Z,5.80
2022-09-24T04:42:46.297Z,6.43
2022-09-24T04:47:52.586Z,6.28
2022-09-24T04:52:55.188Z,6.40
2022-09-24T04:57:57.645Z,6.43
2022-09-24T05:03:03.246Z,6.43
2022-09-24T05:08:04.979Z,5.88
2022-09-24T05:13:06.627Z,11.18
2022-09-24T05:18:08.236Z,6.97
2022-09-24T05:23:10.061Z,6.57
2022-09-24T05:28:11.672Z,21.35
2022-09-24T05:33:13.697Z,9.60
2022-09-24T05:38:15.338Z,7.13
2022-09-24T05:43:19.253Z,6.88
2022-09-24T05:48:21.405Z,6.60
2022-09-24T05:53:23.350Z,6.75
2022-09-24T05:58:25.131Z,6.65
2022-09-24T06:03:27.172Z,6.40
2022-09-24T06:08:30.759Z,6.03
2022-09-24T06:13:34.863Z,6.32
2022-09-24T06:18:40.039Z,6.50
2022-09-24T06:23:42.287Z,6.28
2022-09-24T06:28:43.951Z,6.68
2022-09-24T06:33:45.642Z,6.40
2022-09-24T06:38:51.864Z,5.70
2022-09-24T06:43:56.519Z,5.57
2022-09-24T06:48:58.375Z,5.70
2022-09-24T06:53:59.975Z,6.20
2022-09-24T06:59:01.687Z,6.20
2022-09-24T07:04:03.429Z,5.82
2022-09-24T07:09:05.699Z,6.25
2022-09-24T07:14:07.397Z,6.63
2022-09-24T07:19:09.279Z,5.75
2022-09-24T07:24:10.964Z,6.40
2022-09-24T07:29:12.582Z,5.60
2022-09-24T07:34:14.424Z,5.55
2022-09-24T07:39:16.455Z,5.65
2022-09-24T07:44:23.078Z,6.00
2022-09-24T07:49:24.706Z,5.53
2022-09-24T07:54:26.446Z,6.07
2022-09-24T07:59:28.451Z,6.05
2022-09-24T08:04:31.862Z,5.93
2022-09-24T08:09:33.497Z,5.35
2022-09-24T08:14:35.257Z,5.35
2022-09-24T08:19:36.951Z,5.32
2022-09-24T08:24:38.639Z,5.63
2022-09-24T08:29:40.461Z,5.80
2022-09-24T08:34:42.223Z,5.22
2022-09-24T08:39:43.903Z,5.30
2022-09-24T08:45:05.623Z,5.20
2022-09-24T08:50:23.270Z,5.30
2022-09-24T08:55:35.537Z,5.53
2022-09-24T09:00:47.110Z,5.80
2022-09-24T09:05:55.295Z,5.10
2022-09-24T09:11:03.393Z,4.97
2022-09-24T09:16:06.846Z,4.57
2022-09-24T09:21:25.759Z,5.30
2022-09-24T09:26:27.404Z,4.45
2022-09-24T09:31:55.433Z,5.18
2022-09-24T09:37:07.375Z,5.30
2022-09-24T09:42:28.144Z,4.97
2022-09-24T09:47:49.441Z,4.50
2022-09-24T09:52:51.326Z,5.43
2022-09-24T09:57:53.623Z,5.15
2022-09-24T10:02:55.555Z,4.72
2022-09-24T10:08:00.451Z,4.88
2022-09-24T10:13:10.130Z,4.57
2022-09-24T10:18:14.425Z,7.00
2022-09-24T10:23:22.243Z,4.65
2022-09-24T10:28:43.183Z,4.72
2022-09-24T10:33:48.023Z,4.60
2022-09-24T10:38:50.160Z,8.75
2022-09-24T10:43:53.804Z,4.78
2022-09-24T10:49:22.973Z,4.65
2022-09-24T10:54:51.080Z,4.75
2022-09-24T11:00:21.719Z,4.43
2022-09-24T11:05:24.474Z,4.20
2022-09-24T11:11:02.653Z,3.78
2022-09-24T11:16:16.109Z,3.97
2022-09-24T11:21:35.023Z,3.42
2022-09-24T11:27:08.347Z,3.35
2022-09-24T11:32:29.602Z,3.65
2022-09-24T11:37:55.873Z,2.35
2022-09-24T11:43:25.524Z,2.65
2022-09-24T11:48:45.788Z,2.90
2022-09-24T11:54:00.651Z,2.90
2022-09-24T11:59:43.918Z,3.25
2022-09-24T12:04:53.525Z,3.35
2022-09-24T12:10:19.172Z,3.00
2022-09-24T12:15:25.089Z,3.38
2022-09-24T12:20:29.353Z,3.40
2022-09-24T12:25:39.474Z,2.88
2022-09-24T12:31:12.244Z,3.13
2022-09-24T12:36:39.225Z,3.20
2022-09-24T12:41:49.250Z,3.50
2022-09-24T12:47:00.968Z,3.63
2022-09-24T12:52:18.786Z,3.88
2022-09-24T12:57:25.970Z,3.28
2022-09-24T13:02:43.732Z,2.92
2022-09-24T13:08:23.164Z,3.17
2022-09-24T13:13:31.735Z,3.80
2022-09-24T13:18:37.391Z,3.58
2022-09-24T13:23:38.986Z,3.20
2022-09-24T13:29:01.752Z,3.45
2022-09-24T13:34:06.216Z,4.30
2022-09-24T13:39:25.022Z,3.80
2022-09-24T13:44:29.854Z,3.20
2022-09-24T13:49:33.683Z,3.22
2022-09-24T13:54:48.780Z,3.78
2022-09-24T14:00:00.858Z,3.08
2022-09-24T14:05:03.040Z,3.33
2022-09-24T14:10:13.169Z,8.07
2022-09-24T14:15:16.621Z,8.13
2022-09-24T14:20:19.480Z,3.35
2022-09-24T14:25:28.408Z,2.88
2022-09-24T14:30:31.984Z,2.90
2022-09-24T14:35:37.099Z,2.72
2022-09-24T14:40:49.620Z,2.90
2022-09-24T14:45:52.267Z,2.55
2022-09-24T14:50:53.900Z,3.08
2022-09-24T14:55:56.585Z,2.72
2022-09-24T15:01:05.743Z,2.80
2022-09-24T15:06:35.022Z,2.83
2022-09-24T15:11:43.222Z,2.88
2022-09-24T15:16:49.698Z,2.60
2022-09-24T15:21:53.334Z,3.28
2022-09-24T15:27:02.855Z,3.30
2022-09-24T15:32:15.169Z,4.00
2022-09-24T15:37:20.174Z,2.95
2022-09-24T15:42:24.548Z,3.20
2022-09-24T15:47:26.233Z,3.17
2022-09-24T15:52:31.828Z,2.70
2022-09-24T15:57:33.614Z,3.78
2022-09-24T16:02:35.415Z,3.50
2022-09-24T16:07:37.281Z,3.33
2022-09-24T16:12:39.779Z,3.30
2022-09-24T16:17:41.751Z,3.85
2022-09-24T16:22:43.383Z,3.53
2022-09-24T16:27:45.103Z,4.05
2022-09-24T16:32:46.773Z,4.03
2022-09-24T16:37:48.426Z,8.00
2022-09-24T16:42:50.164Z,4.38
2022-09-24T16:47:51.992Z,4.32
2022-09-24T16:52:55.384Z,4.43
2022-09-24T16:57:57.129Z,4.22
2022-09-24T17:02:59.632Z,5.13
2022-09-24T17:08:01.545Z,5.43
2022-09-24T17:13:03.338Z,5.63
2022-09-24T17:18:05.047Z,5.22
2022-09-24T17:23:06.896Z,5.10
2022-09-24T17:28:11.133Z,5.35
2022-09-24T17:33:41.332Z,5.80
2022-09-24T17:38:34.884Z,5.80
2022-09-24T17:43:37.295Z,6.63
2022-09-24T17:48:40.912Z,7.05
2022-09-24T17:53:42.976Z,7.00
2022-09-24T17:58:46.897Z,8.02
2022-09-24T18:03:56.540Z,9.35
2022-09-24T18:08:59.967Z,8.60
2022-09-24T18:14:02.610Z,7.18
2022-09-24T18:19:04.321Z,7.38
2022-09-24T18:24:06.085Z,7.07
2022-09-24T18:29:13.034Z,7.28
2022-09-24T18:34:16.036Z,7.63
2022-09-24T18:39:23.861Z,7.05
2022-09-24T18:44:26.675Z,7.00
2022-09-24T18:49:28.567Z,7.07
2022-09-24T18:54:30.913Z,7.32
2022-09-24T18:59:44.145Z,7.15
2022-09-24T19:04:45.850Z,7.13
2022-09-24T19:09:47.476Z,8.70
2022-09-24T19:14:49.739Z,8.15
2022-09-24T19:19:52.653Z,14.90
2022-09-24T19:24:54.665Z,11.82
2022-09-24T19:29:56.305Z,11.68
2022-09-24T19:34:57.920Z,11.50
2022-09-24T19:39:59.751Z,10.90
2022-09-24T19:45:01.428Z,12.45
2022-09-24T19:50:03.584Z,11.48
2022-09-24T19:55:05.565Z,12.98
2022-09-24T20:00:08.099Z,12.65
2022-09-24T20:05:09.768Z,13.00
2022-09-24T20:10:12.165Z,14.55
2022-09-24T20:15:13.887Z,13.60
2022-09-24T20:20:15.900Z,14.27
2022-09-24T20:25:17.596Z,15.57
2022-09-24T20:30:21.296Z,16.05
2022-09-24T20:35:22.935Z,17.13
2022-09-24T20:40:24.636Z,22.15
2022-09-24T20:45:26.339Z,23.65
2022-09-24T20:50:28.002Z,21.17
2022-09-24T20:55:30.394Z,21.50
2022-09-24T21:00:35.737Z,20.70
2022-09-24T21:05:37.912Z,20.67
2022-09-24T21:10:39.540Z,21.25
2022-09-24T21:15:41.236Z,20.10
2022-09-24T21:20:43.151Z,20.15
2022-09-24T21:25:59.952Z,21.02
2022-09-24T21:31:03.469Z,23.70
2022-09-24T21:36:07.454Z,20.40
2022-09-24T21:41:09.472Z,17.77
2022-09-24T21:46:11.135Z,18.25
2022-09-24T21:51:19.366Z,17.02
2022-09-24T21:56:21.865Z,17.08
2022-09-24T22:01:29.205Z,20.33
2022-09-24T22:06:31.366Z,19.65
2022-09-24T22:11:34.424Z,16.42
2022-09-24T22:16:36.342Z,16.42
2022-09-24T22:21:38.123Z,15.60
2022-09-24T22:26:40.281Z,14.57
2022-09-24T22:31:41.924Z,15.30
2022-09-24T22:36:43.592Z,14.93
2022-09-24T22:41:45.305Z,13.93
2022-09-24T22:46:46.962Z,14.10
2022-09-24T22:51:48.886Z,13.32
2022-09-24T22:56:50.980Z,13.13
2022-09-24T23:01:52.744Z,12.63
2022-09-24T23:06:54.428Z,12.55
2022-09-24T23:11:56.623Z,13.73
2022-09-24T23:16:58.931Z,14.70
2022-09-24T23:22:00.715Z,12.73
2022-09-24T23:27:02.341Z,12.63
2022-09-24T23:32:04.540Z,14.23
2022-09-24T23:37:06.171Z,14.95
2022-09-24T23:42:08.507Z,13.30
2022-09-24T23:47:10.122Z,13.45
2022-09-24T23:52:11.737Z,13.50
2022-09-24T23:57:13.457Z,13.25
